Alegrete do Piaui, Brazil
Current Conditions -  °F | °C
As of 5:00 PM on Monday 20 Oct 2014 (Local Time) from SBJU Reporting Station
Scattered Clouds Scattered Clouds  
Wind Chill: 100°   Ceiling: Unl
Heat Index: 100°   Visibility: 6mi
Dew Point: 55°   Wind: 7mph
Humidity: 22%   Direction: 190°S
Pressure: 29.85"   Gusts: NA
Location:  7.24°S, 40.86°W
Report Text: SBJU 202000Z 19006KT 9999 SCT022 38/13 Q1011
Loading
Personal Weather Stations






























Interactive Weather Map
Tropical Storm Tracking
New forecast layout! Learn more

10-Day Weather Forecast

Advertisements
Track Severe Weather on mobile